createdAt,value
2023-06-17T00:04:28.714Z,18.83
2023-06-17T00:09:30.938Z,17.77
2023-06-17T00:14:33.839Z,17.33
2023-06-17T00:19:37.190Z,16.02
2023-06-17T00:24:39.456Z,15.75
2023-06-17T00:29:41.774Z,13.00
2023-06-17T00:34:43.994Z,13.45
2023-06-17T00:39:46.341Z,13.95
2023-06-17T00:44:48.572Z,14.65
2023-06-17T00:49:54.761Z,13.93
2023-06-17T00:54:57.083Z,13.00
2023-06-17T00:59:59.414Z,13.57
2023-06-17T01:05:02.272Z,14.05
2023-06-17T01:10:19.151Z,12.68
2023-06-17T01:15:22.890Z,13.45
2023-06-17T01:20:26.956Z,13.63
2023-06-17T01:25:32.760Z,12.10
2023-06-17T01:30:35.153Z,12.68
2023-06-17T01:35:42.025Z,14.40
2023-06-17T01:40:46.338Z,15.07
2023-06-17T01:45:48.824Z,13.47
2023-06-17T01:50:51.680Z,12.63
2023-06-17T01:55:54.283Z,13.02
2023-06-17T02:00:56.538Z,14.13
2023-06-17T02:05:59.377Z,14.27
2023-06-17T02:11:02.391Z,15.47
2023-06-17T02:16:04.802Z,12.68
2023-06-17T02:21:06.958Z,14.27
2023-06-17T02:26:09.219Z,14.50
2023-06-17T02:31:11.734Z,14.68
2023-06-17T02:36:15.717Z,14.67
2023-06-17T02:41:17.934Z,15.63
2023-06-17T02:46:20.379Z,13.57
2023-06-17T02:51:23.667Z,13.18
2023-06-17T02:56:27.758Z,14.20
2023-06-17T03:01:30.086Z,12.93
2023-06-17T03:06:35.271Z,15.73
2023-06-17T03:11:37.992Z,12.85
2023-06-17T03:16:41.714Z,13.93
2023-06-17T03:21:44.353Z,12.85
2023-06-17T03:26:46.750Z,14.17
2023-06-17T03:31:48.937Z,13.40
2023-06-17T03:36:51.395Z,13.55
2023-06-17T03:41:53.617Z,13.02
2023-06-17T03:46:58.389Z,14.25
2023-06-17T03:52:00.684Z,11.63
2023-06-17T03:57:03.466Z,13.45
2023-06-17T04:02:05.852Z,13.43
2023-06-17T04:07:08.160Z,12.98
2023-06-17T04:12:10.922Z,13.62
2023-06-17T04:17:13.076Z,12.43
2023-06-17T04:22:15.284Z,14.18
2023-06-17T04:27:17.422Z,14.05
2023-06-17T04:32:19.641Z,12.37
2023-06-17T04:37:21.798Z,14.82
2023-06-17T04:42:24.633Z,15.77
2023-06-17T04:47:27.010Z,13.27
2023-06-17T04:52:31.947Z,13.90
2023-06-17T04:57:34.738Z,14.45
2023-06-17T05:02:37.808Z,14.50
2023-06-17T05:07:40.170Z,13.13
2023-06-17T05:12:42.813Z,13.13
2023-06-17T05:17:45.315Z,13.48
2023-06-17T05:22:47.687Z,13.25
2023-06-17T05:27:51.647Z,13.10
2023-06-17T05:32:53.872Z,13.00
2023-06-17T05:37:56.161Z,11.77
2023-06-17T05:42:58.575Z,12.80
2023-06-17T05:48:01.005Z,13.95
2023-06-17T05:53:03.848Z,12.15
2023-06-17T05:58:06.131Z,12.43
2023-06-17T06:03:08.330Z,14.27
2023-06-17T06:08:10.656Z,14.65
2023-06-17T06:13:13.077Z,13.50
2023-06-17T06:18:15.817Z,14.73
2023-06-17T06:23:18.017Z,13.43
2023-06-17T06:28:20.200Z,12.37
2023-06-17T06:33:24.047Z,12.55
2023-06-17T06:38:26.292Z,15.25
2023-06-17T06:43:28.508Z,13.88
2023-06-17T06:48:30.785Z,12.20
2023-06-17T06:53:33.267Z,12.37
2023-06-17T06:58:35.715Z,11.38
2023-06-17T07:03:38.578Z,13.10
2023-06-17T07:08:40.827Z,12.80
2023-06-17T07:13:43.099Z,14.00
2023-06-17T07:18:45.301Z,11.63
2023-06-17T07:23:47.628Z,11.65
2023-06-17T07:28:49.878Z,13.02
2023-06-17T07:33:57.811Z,15.48
2023-06-17T07:39:02.933Z,11.93
2023-06-17T07:44:05.268Z,14.45
2023-06-17T07:49:07.481Z,12.98
2023-06-17T07:54:09.995Z,10.43
2023-06-17T07:59:12.198Z,12.73
2023-06-17T08:04:14.546Z,14.43
2023-06-17T08:09:16.749Z,13.82
2023-06-17T08:14:19.117Z,12.15
2023-06-17T08:19:21.381Z,11.77
2023-06-17T08:24:26.062Z,10.23
2023-06-17T08:29:28.469Z,12.97
2023-06-17T08:34:33.721Z,11.40
2023-06-17T08:39:40.814Z,11.38
2023-06-17T08:44:45.290Z,13.03
2023-06-17T08:49:48.161Z,12.70
2023-06-17T08:54:51.154Z,11.07
2023-06-17T08:59:53.319Z,11.02
2023-06-17T09:04:55.791Z,10.80
2023-06-17T09:10:09.035Z,11.20
2023-06-17T09:15:18.515Z,11.80
2023-06-17T09:20:21.406Z,11.73
2023-06-17T09:25:24.488Z,11.70
2023-06-17T09:30:26.830Z,10.63
2023-06-17T09:35:29.035Z,11.20
2023-06-17T09:40:33.857Z,11.05
2023-06-17T09:45:36.284Z,12.77
2023-06-17T09:50:39.009Z,10.77
2023-06-17T09:55:42.828Z,11.73
2023-06-17T10:00:46.761Z,11.27
2023-06-17T10:06:01.498Z,10.43
2023-06-17T10:11:04.101Z,11.93
2023-06-17T10:16:11.924Z,12.68
2023-06-17T10:21:14.923Z,12.02
2023-06-17T10:26:17.095Z,11.50
2023-06-17T10:31:29.823Z,10.57
2023-06-17T10:36:35.026Z,11.57
2023-06-17T10:41:43.121Z,12.35
2023-06-17T10:46:47.680Z,12.40
2023-06-17T10:51:59.222Z,11.07
2023-06-17T10:57:02.905Z,11.82
2023-06-17T11:02:09.008Z,12.27
2023-06-17T11:07:11.292Z,11.63
2023-06-17T11:12:17.553Z,12.43
2023-06-17T11:17:19.926Z,12.70
2023-06-17T11:22:23.868Z,13.30
2023-06-17T11:27:26.152Z,11.67
2023-06-17T11:32:29.193Z,11.75
2023-06-17T11:37:33.552Z,13.20
2023-06-17T11:42:35.976Z,13.18
2023-06-17T11:47:38.420Z,13.48
2023-06-17T11:52:40.763Z,12.10
2023-06-17T11:57:43.825Z,12.65
2023-06-17T12:02:46.345Z,10.63
2023-06-17T12:07:49.029Z,11.67
2023-06-17T12:12:51.856Z,11.40
2023-06-17T12:17:56.247Z,12.67
2023-06-17T12:22:59.087Z,11.23
2023-06-17T12:28:03.006Z,13.77
2023-06-17T12:33:05.318Z,10.07
2023-06-17T12:38:09.242Z,10.27
2023-06-17T12:43:11.474Z,10.07
2023-06-17T12:48:13.806Z,10.65
2023-06-17T12:53:16.137Z,9.10
2023-06-17T12:58:18.362Z,9.10
2023-06-17T13:03:21.840Z,8.77
2023-06-17T13:08:24.109Z,8.13
2023-06-17T13:13:28.357Z,8.45
2023-06-17T13:18:30.585Z,9.70
2023-06-17T13:23:32.793Z,9.67
2023-06-17T13:28:36.053Z,8.55
2023-06-17T13:33:39.050Z,8.77
2023-06-17T13:38:41.472Z,8.07
2023-06-17T13:43:43.702Z,9.00
2023-06-17T13:48:46.071Z,11.37
2023-06-17T13:53:48.344Z,9.40
2023-06-17T13:58:50.566Z,9.53
2023-06-17T14:03:53.377Z,8.95
2023-06-17T14:08:55.739Z,9.40
2023-06-17T14:13:57.988Z,8.53
2023-06-17T14:19:00.878Z,7.97
2023-06-17T14:24:05.938Z,11.13
2023-06-17T14:29:10.073Z,9.18
2023-06-17T14:34:12.322Z,8.10
2023-06-17T14:39:14.529Z,7.57
2023-06-17T14:44:16.903Z,8.73
2023-06-17T14:49:19.397Z,8.60
2023-06-17T14:54:21.666Z,8.93
2023-06-17T14:59:24.205Z,8.02
2023-06-17T15:04:28.000Z,8.13
2023-06-17T15:09:31.951Z,8.38
2023-06-17T15:14:36.629Z,9.43
2023-06-17T15:19:38.882Z,8.55
2023-06-17T15:24:43.987Z,9.35
2023-06-17T15:29:46.189Z,7.37
2023-06-17T15:34:49.069Z,7.53
2023-06-17T15:39:51.592Z,8.67
2023-06-17T15:44:53.808Z,8.02
2023-06-17T15:49:56.000Z,7.75
2023-06-17T15:54:58.411Z,8.07
2023-06-17T16:00:02.637Z,7.95
2023-06-17T16:05:05.351Z,8.67
2023-06-17T16:10:08.083Z,8.60
2023-06-17T16:15:19.567Z,8.38
2023-06-17T16:20:22.177Z,8.07
2023-06-17T16:25:24.602Z,7.53
2023-06-17T16:30:34.277Z,9.43
2023-06-17T16:35:36.545Z,7.57
2023-06-17T16:40:38.842Z,8.23
2023-06-17T16:45:41.518Z,8.03
2023-06-17T16:50:43.908Z,7.85
2023-06-17T16:55:46.446Z,8.37
2023-06-17T17:00:48.628Z,8.50
2023-06-17T17:05:51.171Z,7.82
2023-06-17T17:10:53.468Z,8.87
2023-06-17T17:15:56.277Z,9.35
2023-06-17T17:20:58.641Z,8.10
2023-06-17T17:26:00.924Z,8.55
2023-06-17T17:31:04.057Z,9.15
2023-06-17T17:36:07.272Z,8.13
2023-06-17T17:41:10.210Z,8.43
2023-06-17T17:46:12.621Z,8.83
2023-06-17T17:51:15.259Z,8.45
2023-06-17T17:56:17.571Z,9.98
2023-06-17T18:01:19.851Z,8.87
2023-06-17T18:06:22.515Z,11.93
2023-06-17T18:11:24.791Z,8.90
2023-06-17T18:16:27.073Z,8.45
2023-06-17T18:21:29.914Z,10.07
2023-06-17T18:26:32.230Z,8.10
2023-06-17T18:31:34.536Z,9.50
2023-06-17T18:36:36.821Z,8.97
2023-06-17T18:41:43.134Z,8.20
2023-06-17T18:46:45.789Z,8.45
2023-06-17T18:51:48.470Z,9.23
2023-06-17T18:56:50.889Z,8.90
2023-06-17T19:01:53.182Z,8.90
2023-06-17T19:06:55.788Z,8.27
2023-06-17T19:12:00.975Z,8.98
2023-06-17T19:17:03.772Z,8.18
2023-06-17T19:22:06.412Z,9.68
2023-06-17T19:27:08.700Z,9.00
2023-06-17T19:32:10.934Z,8.63
2023-06-17T19:37:13.235Z,8.85
2023-06-17T19:42:15.636Z,9.25
2023-06-17T19:47:17.995Z,8.80
2023-06-17T19:52:21.347Z,9.93
2023-06-17T19:57:23.642Z,10.70
2023-06-17T20:02:26.227Z,10.35
2023-06-17T20:07:28.512Z,9.20
2023-06-17T20:12:31.150Z,10.98
2023-06-17T20:17:33.481Z,10.83
2023-06-17T20:22:35.789Z,10.50
2023-06-17T20:27:38.262Z,9.98
2023-06-17T20:32:41.702Z,11.13
2023-06-17T20:37:44.348Z,11.12
2023-06-17T20:42:46.644Z,12.53
2023-06-17T20:47:49.002Z,10.82
2023-06-17T20:52:51.273Z,12.35
2023-06-17T20:57:53.463Z,10.45
2023-06-17T21:02:56.083Z,10.70
2023-06-17T21:07:58.653Z,10.60
2023-06-17T21:13:01.585Z,10.32
2023-06-17T21:18:03.928Z,10.30
2023-06-17T21:23:06.149Z,11.27
2023-06-17T21:28:08.358Z,11.63
2023-06-17T21:33:10.766Z,12.17
2023-06-17T21:38:13.100Z,11.95
2023-06-17T21:43:15.826Z,13.82
2023-06-17T21:48:18.188Z,10.98
2023-06-17T21:53:20.630Z,9.80
2023-06-17T21:58:22.964Z,10.50
2023-06-17T22:03:25.605Z,10.77
2023-06-17T22:08:41.226Z,11.38
2023-06-17T22:13:44.983Z,11.48
2023-06-17T22:18:47.417Z,12.88
2023-06-17T22:23:49.959Z,11.17
2023-06-17T22:28:52.653Z,12.65
2023-06-17T22:33:54.869Z,10.80
2023-06-17T22:38:57.061Z,12.90
2023-06-17T22:43:59.404Z,10.05
2023-06-17T22:49:01.939Z,10.10
2023-06-17T22:54:04.353Z,10.27
2023-06-17T22:59:06.625Z,12.07
2023-06-17T23:04:08.836Z,9.55
2023-06-17T23:09:11.587Z,9.95
2023-06-17T23:14:13.799Z,10.73
2023-06-17T23:19:16.254Z,9.50
2023-06-17T23:24:18.418Z,9.85
2023-06-17T23:29:20.942Z,10.13
2023-06-17T23:34:23.257Z,11.07
2023-06-17T23:39:25.508Z,10.23
2023-06-17T23:44:27.779Z,10.35
2023-06-17T23:49:35.595Z,10.80
2023-06-17T23:54:38.263Z,9.75
2023-06-17T23:59:41.271Z,11.30
